sensor_id;sensor_type;location;lat;lon;timestamp;P1;durP1;ratioP1;P2;durP2;ratioP2
8232;SDS011;4157;48.074;9.952;2022-10-16T00:01:21;10.15;;;3.08;;
8232;SDS011;4157;48.074;9.952;2022-10-16T00:03:49;5.25;;;2.15;;
8232;SDS011;4157;48.074;9.952;2022-10-16T00:06:20;5.20;;;2.40;;
8232;SDS011;4157;48.074;9.952;2022-10-16T00:08:48;5.03;;;2.67;;
8232;SDS011;4157;48.074;9.952;2022-10-16T00:11:18;5.97;;;2.10;;
8232;SDS011;4157;48.074;9.952;2022-10-16T00:13:47;4.28;;;2.00;;
8232;SDS011;4157;48.074;9.952;2022-10-16T00:16:15;5.82;;;2.20;;
8232;SDS011;4157;48.074;9.952;2022-10-16T00:18:43;6.78;;;1.95;;
8232;SDS011;4157;48.074;9.952;2022-10-16T00:21:12;6.45;;;2.00;;
8232;SDS011;4157;48.074;9.952;2022-10-16T00:24:00;7.10;;;2.30;;
8232;SDS011;4157;48.074;9.952;2022-10-16T00:26:29;7.90;;;1.88;;
8232;SDS011;4157;48.074;9.952;2022-10-16T00:28:57;4.63;;;2.10;;
8232;SDS011;4157;48.074;9.952;2022-10-16T00:31:25;4.80;;;2.00;;
8232;SDS011;4157;48.074;9.952;2022-10-16T00:33:53;5.15;;;2.17;;
8232;SDS011;4157;48.074;9.952;2022-10-16T00:36:21;5.82;;;1.88;;
8232;SDS011;4157;48.074;9.952;2022-10-16T00:38:50;4.93;;;2.10;;
8232;SDS011;4157;48.074;9.952;2022-10-16T00:41:22;4.13;;;1.67;;
8232;SDS011;4157;48.074;9.952;2022-10-16T00:43:51;4.00;;;2.00;;
8232;SDS011;4157;48.074;9.952;2022-10-16T00:46:20;7.00;;;1.90;;
8232;SDS011;4157;48.074;9.952;2022-10-16T00:48:49;7.05;;;1.67;;
8232;SDS011;4157;48.074;9.952;2022-10-16T00:51:21;4.50;;;1.85;;
8232;SDS011;4157;48.074;9.952;2022-10-16T00:53:50;9.13;;;2.00;;
8232;SDS011;4157;48.074;9.952;2022-10-16T00:56:18;5.20;;;1.60;;
8232;SDS011;4157;48.074;9.952;2022-10-16T00:58:47;4.03;;;1.60;;
8232;SDS011;4157;48.074;9.952;2022-10-16T01:01:15;6.10;;;1.70;;
8232;SDS011;4157;48.074;9.952;2022-10-16T01:03:42;5.35;;;1.98;;
8232;SDS011;4157;48.074;9.952;2022-10-16T01:06:23;3.55;;;1.80;;
8232;SDS011;4157;48.074;9.952;2022-10-16T01:08:55;4.60;;;1.52;;
8232;SDS011;4157;48.074;9.952;2022-10-16T01:11:27;3.97;;;1.88;;
8232;SDS011;4157;48.074;9.952;2022-10-16T01:13:58;4.45;;;1.70;;
8232;SDS011;4157;48.074;9.952;2022-10-16T01:16:29;7.28;;;2.45;;
8232;SDS011;4157;48.074;9.952;2022-10-16T01:18:59;9.20;;;1.75;;
8232;SDS011;4157;48.074;9.952;2022-10-16T01:21:29;6.00;;;1.70;;
8232;SDS011;4157;48.074;9.952;2022-10-16T01:24:01;4.35;;;1.58;;
8232;SDS011;4157;48.074;9.952;2022-10-16T01:26:32;6.25;;;1.50;;
8232;SDS011;4157;48.074;9.952;2022-10-16T01:29:05;4.68;;;1.77;;
8232;SDS011;4157;48.074;9.952;2022-10-16T01:31:35;4.35;;;1.75;;
8232;SDS011;4157;48.074;9.952;2022-10-16T01:34:05;5.93;;;1.95;;
8232;SDS011;4157;48.074;9.952;2022-10-16T01:36:35;3.58;;;1.63;;
8232;SDS011;4157;48.074;9.952;2022-10-16T01:39:04;3.28;;;1.50;;
8232;SDS011;4157;48.074;9.952;2022-10-16T01:41:34;4.40;;;1.85;;
8232;SDS011;4157;48.074;9.952;2022-10-16T01:44:06;6.22;;;1.73;;
8232;SDS011;4157;48.074;9.952;2022-10-16T01:46:35;6.60;;;1.85;;
8232;SDS011;4157;48.074;9.952;2022-10-16T01:49:04;5.53;;;2.03;;
8232;SDS011;4157;48.074;9.952;2022-10-16T01:51:33;2.78;;;1.35;;
8232;SDS011;4157;48.074;9.952;2022-10-16T01:54:02;2.95;;;1.48;;
8232;SDS011;4157;48.074;9.952;2022-10-16T01:56:31;2.88;;;1.33;;
8232;SDS011;4157;48.074;9.952;2022-10-16T01:59:00;5.10;;;1.52;;
8232;SDS011;4157;48.074;9.952;2022-10-16T02:01:32;5.18;;;1.67;;
8232;SDS011;4157;48.074;9.952;2022-10-16T02:04:02;5.30;;;1.38;;
8232;SDS011;4157;48.074;9.952;2022-10-16T02:06:31;7.75;;;1.88;;
8232;SDS011;4157;48.074;9.952;2022-10-16T02:09:00;3.58;;;1.33;;
8232;SDS011;4157;48.074;9.952;2022-10-16T02:11:27;3.88;;;1.45;;
8232;SDS011;4157;48.074;9.952;2022-10-16T02:13:57;4.15;;;1.73;;
8232;SDS011;4157;48.074;9.952;2022-10-16T02:16:33;3.55;;;1.52;;
8232;SDS011;4157;48.074;9.952;2022-10-16T02:19:01;2.85;;;1.20;;
8232;SDS011;4157;48.074;9.952;2022-10-16T02:21:31;4.78;;;1.83;;
8232;SDS011;4157;48.074;9.952;2022-10-16T02:24:02;4.55;;;1.55;;
8232;SDS011;4157;48.074;9.952;2022-10-16T02:26:33;3.35;;;1.42;;
8232;SDS011;4157;48.074;9.952;2022-10-16T02:29:04;4.07;;;1.27;;
8232;SDS011;4157;48.074;9.952;2022-10-16T02:31:35;5.03;;;1.70;;
8232;SDS011;4157;48.074;9.952;2022-10-16T02:34:05;4.35;;;1.50;;
8232;SDS011;4157;48.074;9.952;2022-10-16T02:36:34;3.67;;;1.60;;
8232;SDS011;4157;48.074;9.952;2022-10-16T02:39:02;6.95;;;1.60;;
8232;SDS011;4157;48.074;9.952;2022-10-16T02:41:31;3.55;;;1.20;;
8232;SDS011;4157;48.074;9.952;2022-10-16T02:43:59;5.47;;;1.38;;
8232;SDS011;4157;48.074;9.952;2022-10-16T02:46:27;2.80;;;1.20;;
8232;SDS011;4157;48.074;9.952;2022-10-16T02:48:56;6.43;;;1.48;;
8232;SDS011;4157;48.074;9.952;2022-10-16T02:51:24;5.28;;;1.50;;
8232;SDS011;4157;48.074;9.952;2022-10-16T02:53:52;5.88;;;1.35;;
8232;SDS011;4157;48.074;9.952;2022-10-16T02:56:20;3.67;;;1.40;;
8232;SDS011;4157;48.074;9.952;2022-10-16T02:58:47;3.55;;;1.30;;
8232;SDS011;4157;48.074;9.952;2022-10-16T03:01:15;3.47;;;1.35;;
8232;SDS011;4157;48.074;9.952;2022-10-16T03:03:43;4.10;;;1.60;;
8232;SDS011;4157;48.074;9.952;2022-10-16T03:06:12;3.55;;;1.30;;
8232;SDS011;4157;48.074;9.952;2022-10-16T03:08:39;5.03;;;1.40;;
8232;SDS011;4157;48.074;9.952;2022-10-16T03:11:07;2.90;;;1.30;;
8232;SDS011;4157;48.074;9.952;2022-10-16T03:13:35;3.70;;;1.33;;
8232;SDS011;4157;48.074;9.952;2022-10-16T03:16:03;2.72;;;1.30;;
8232;SDS011;4157;48.074;9.952;2022-10-16T03:18:30;4.25;;;1.30;;
8232;SDS011;4157;48.074;9.952;2022-10-16T03:20:58;2.38;;;1.27;;
8232;SDS011;4157;48.074;9.952;2022-10-16T03:23:27;5.97;;;1.20;;
8232;SDS011;4157;48.074;9.952;2022-10-16T03:25:55;4.90;;;1.40;;
8232;SDS011;4157;48.074;9.952;2022-10-16T03:28:23;5.10;;;1.17;;
8232;SDS011;4157;48.074;9.952;2022-10-16T03:30:51;4.75;;;1.50;;
8232;SDS011;4157;48.074;9.952;2022-10-16T03:33:18;2.85;;;1.20;;
8232;SDS011;4157;48.074;9.952;2022-10-16T03:35:50;4.13;;;1.23;;
8232;SDS011;4157;48.074;9.952;2022-10-16T03:38:19;3.00;;;1.05;;
8232;SDS011;4157;48.074;9.952;2022-10-16T03:40:48;2.75;;;1.25;;
8232;SDS011;4157;48.074;9.952;2022-10-16T03:43:16;3.60;;;1.40;;
8232;SDS011;4157;48.074;9.952;2022-10-16T03:45:44;2.58;;;1.40;;
8232;SDS011;4157;48.074;9.952;2022-10-16T03:48:11;2.42;;;1.30;;
8232;SDS011;4157;48.074;9.952;2022-10-16T03:50:39;3.55;;;1.40;;
8232;SDS011;4157;48.074;9.952;2022-10-16T03:53:07;1.88;;;1.00;;
8232;SDS011;4157;48.074;9.952;2022-10-16T03:55:34;5.63;;;1.33;;
8232;SDS011;4157;48.074;9.952;2022-10-16T03:58:04;5.05;;;1.20;;
8232;SDS011;4157;48.074;9.952;2022-10-16T04:00:31;5.50;;;1.65;;
8232;SDS011;4157;48.074;9.952;2022-10-16T04:03:00;3.33;;;1.45;;
8232;SDS011;4157;48.074;9.952;2022-10-16T04:05:27;2.75;;;1.23;;
8232;SDS011;4157;48.074;9.952;2022-10-16T04:07:55;3.88;;;1.27;;
8232;SDS011;4157;48.074;9.952;2022-10-16T04:10:23;3.17;;;1.45;;
8232;SDS011;4157;48.074;9.952;2022-10-16T04:12:50;3.78;;;1.40;;
8232;SDS011;4157;48.074;9.952;2022-10-16T04:15:21;2.78;;;1.30;;
8232;SDS011;4157;48.074;9.952;2022-10-16T04:17:49;2.60;;;1.33;;
8232;SDS011;4157;48.074;9.952;2022-10-16T04:20:17;3.35;;;1.38;;
8232;SDS011;4157;48.074;9.952;2022-10-16T04:22:45;5.95;;;1.50;;
8232;SDS011;4157;48.074;9.952;2022-10-16T04:25:13;4.57;;;1.80;;
8232;SDS011;4157;48.074;9.952;2022-10-16T04:27:40;8.80;;;1.40;;
8232;SDS011;4157;48.074;9.952;2022-10-16T04:30:08;3.75;;;1.58;;
8232;SDS011;4157;48.074;9.952;2022-10-16T04:32:38;3.08;;;1.45;;
8232;SDS011;4157;48.074;9.952;2022-10-16T04:35:05;6.72;;;1.70;;
8232;SDS011;4157;48.074;9.952;2022-10-16T04:37:33;3.42;;;1.48;;
8232;SDS011;4157;48.074;9.952;2022-10-16T04:40:01;4.20;;;1.60;;
8232;SDS011;4157;48.074;9.952;2022-10-16T04:42:29;5.30;;;2.60;;
8232;SDS011;4157;48.074;9.952;2022-10-16T04:44:57;7.68;;;2.55;;
8232;SDS011;4157;48.074;9.952;2022-10-16T04:47:24;3.67;;;1.60;;
8232;SDS011;4157;48.074;9.952;2022-10-16T04:49:53;3.47;;;1.50;;
8232;SDS011;4157;48.074;9.952;2022-10-16T04:52:22;4.30;;;1.55;;
8232;SDS011;4157;48.074;9.952;2022-10-16T04:54:50;7.53;;;2.75;;
8232;SDS011;4157;48.074;9.952;2022-10-16T04:57:18;6.82;;;2.03;;
8232;SDS011;4157;48.074;9.952;2022-10-16T04:59:45;6.28;;;2.13;;
8232;SDS011;4157;48.074;9.952;2022-10-16T05:02:13;4.95;;;1.83;;
8232;SDS011;4157;48.074;9.952;2022-10-16T05:04:41;4.68;;;1.50;;
8232;SDS011;4157;48.074;9.952;2022-10-16T05:07:10;11.07;;;2.00;;
8232;SDS011;4157;48.074;9.952;2022-10-16T05:09:37;4.25;;;1.55;;
8232;SDS011;4157;48.074;9.952;2022-10-16T05:12:05;5.35;;;1.75;;
8232;SDS011;4157;48.074;9.952;2022-10-16T05:14:33;5.07;;;1.70;;
8232;SDS011;4157;48.074;9.952;2022-10-16T05:17:00;2.75;;;1.30;;
8232;SDS011;4157;48.074;9.952;2022-10-16T05:19:28;5.43;;;1.45;;
8232;SDS011;4157;48.074;9.952;2022-10-16T05:21:56;4.35;;;1.70;;
8232;SDS011;4157;48.074;9.952;2022-10-16T05:24:25;8.05;;;1.77;;
8232;SDS011;4157;48.074;9.952;2022-10-16T05:26:52;6.15;;;2.10;;
8232;SDS011;4157;48.074;9.952;2022-10-16T05:29:20;3.22;;;1.40;;
8232;SDS011;4157;48.074;9.952;2022-10-16T05:31:49;6.15;;;1.83;;
8232;SDS011;4157;48.074;9.952;2022-10-16T05:34:17;4.90;;;1.58;;
8232;SDS011;4157;48.074;9.952;2022-10-16T05:36:45;4.72;;;1.50;;
8232;SDS011;4157;48.074;9.952;2022-10-16T05:39:13;4.15;;;2.08;;
8232;SDS011;4157;48.074;9.952;2022-10-16T05:41:42;4.78;;;1.80;;
8232;SDS011;4157;48.074;9.952;2022-10-16T05:44:10;3.83;;;1.90;;
8232;SDS011;4157;48.074;9.952;2022-10-16T05:46:38;4.45;;;2.22;;
8232;SDS011;4157;48.074;9.952;2022-10-16T05:49:06;6.28;;;2.72;;
8232;SDS011;4157;48.074;9.952;2022-10-16T05:51:33;5.75;;;2.17;;
8232;SDS011;4157;48.074;9.952;2022-10-16T05:54:01;5.72;;;2.30;;
8232;SDS011;4157;48.074;9.952;2022-10-16T05:56:29;5.15;;;2.50;;
8232;SDS011;4157;48.074;9.952;2022-10-16T05:58:58;7.38;;;3.30;;
8232;SDS011;4157;48.074;9.952;2022-10-16T06:01:26;6.47;;;3.05;;
8232;SDS011;4157;48.074;9.952;2022-10-16T06:03:53;5.90;;;2.95;;
8232;SDS011;4157;48.074;9.952;2022-10-16T06:06:21;5.40;;;2.63;;
8232;SDS011;4157;48.074;9.952;2022-10-16T06:08:51;6.75;;;2.80;;
8232;SDS011;4157;48.074;9.952;2022-10-16T06:11:21;9.35;;;3.00;;
8232;SDS011;4157;48.074;9.952;2022-10-16T06:13:49;5.50;;;2.72;;
8232;SDS011;4157;48.074;9.952;2022-10-16T06:16:18;5.65;;;3.13;;
8232;SDS011;4157;48.074;9.952;2022-10-16T06:18:46;4.90;;;2.75;;
8232;SDS011;4157;48.074;9.952;2022-10-16T06:21:14;5.28;;;2.85;;
8232;SDS011;4157;48.074;9.952;2022-10-16T06:23:43;5.15;;;2.83;;
8232;SDS011;4157;48.074;9.952;2022-10-16T06:26:12;5.20;;;2.92;;
8232;SDS011;4157;48.074;9.952;2022-10-16T06:28:40;5.40;;;2.40;;
8232;SDS011;4157;48.074;9.952;2022-10-16T06:31:08;6.60;;;2.80;;
8232;SDS011;4157;48.074;9.952;2022-10-16T06:33:38;7.75;;;2.80;;
8232;SDS011;4157;48.074;9.952;2022-10-16T06:36:06;4.95;;;2.35;;
8232;SDS011;4157;48.074;9.952;2022-10-16T06:38:35;4.65;;;2.20;;
8232;SDS011;4157;48.074;9.952;2022-10-16T06:41:02;5.65;;;2.35;;
8232;SDS011;4157;48.074;9.952;2022-10-16T06:43:30;7.68;;;2.50;;
8232;SDS011;4157;48.074;9.952;2022-10-16T06:45:59;7.03;;;2.97;;
8232;SDS011;4157;48.074;9.952;2022-10-16T06:48:27;5.68;;;2.58;;
8232;SDS011;4157;48.074;9.952;2022-10-16T06:50:56;4.47;;;2.70;;
8232;SDS011;4157;48.074;9.952;2022-10-16T06:53:25;5.78;;;2.70;;
8232;SDS011;4157;48.074;9.952;2022-10-16T06:55:53;5.55;;;2.42;;
8232;SDS011;4157;48.074;9.952;2022-10-16T06:58:20;9.30;;;2.58;;
8232;SDS011;4157;48.074;9.952;2022-10-16T07:00:48;4.47;;;1.95;;
8232;SDS011;4157;48.074;9.952;2022-10-16T07:03:16;4.68;;;1.70;;
8232;SDS011;4157;48.074;9.952;2022-10-16T07:05:43;4.65;;;1.77;;
8232;SDS011;4157;48.074;9.952;2022-10-16T07:08:13;4.63;;;1.60;;
8232;SDS011;4157;48.074;9.952;2022-10-16T07:10:40;3.28;;;1.63;;
8232;SDS011;4157;48.074;9.952;2022-10-16T07:13:08;3.47;;;1.88;;
8232;SDS011;4157;48.074;9.952;2022-10-16T07:15:38;5.13;;;2.05;;
8232;SDS011;4157;48.074;9.952;2022-10-16T07:18:06;6.07;;;2.40;;
8232;SDS011;4157;48.074;9.952;2022-10-16T07:20:34;4.63;;;2.22;;
8232;SDS011;4157;48.074;9.952;2022-10-16T07:23:03;5.25;;;2.78;;
8232;SDS011;4157;48.074;9.952;2022-10-16T07:25:32;5.72;;;3.35;;
8232;SDS011;4157;48.074;9.952;2022-10-16T07:27:59;6.10;;;3.17;;
8232;SDS011;4157;48.074;9.952;2022-10-16T07:30:27;7.25;;;3.13;;
8232;SDS011;4157;48.074;9.952;2022-10-16T07:32:55;6.82;;;3.28;;
8232;SDS011;4157;48.074;9.952;2022-10-16T07:35:22;8.35;;;3.10;;
8232;SDS011;4157;48.074;9.952;2022-10-16T07:37:50;6.53;;;2.92;;
8232;SDS011;4157;48.074;9.952;2022-10-16T07:40:18;8.57;;;2.00;;
8232;SDS011;4157;48.074;9.952;2022-10-16T07:42:47;6.72;;;2.08;;
8232;SDS011;4157;48.074;9.952;2022-10-16T07:45:14;5.72;;;2.20;;
8232;SDS011;4157;48.074;9.952;2022-10-16T07:47:42;5.78;;;2.20;;
8232;SDS011;4157;48.074;9.952;2022-10-16T07:50:10;7.95;;;2.83;;
8232;SDS011;4157;48.074;9.952;2022-10-16T07:52:37;8.45;;;3.05;;
8232;SDS011;4157;48.074;9.952;2022-10-16T07:55:05;5.18;;;1.83;;
8232;SDS011;4157;48.074;9.952;2022-10-16T07:57:33;7.13;;;1.65;;
8232;SDS011;4157;48.074;9.952;2022-10-16T08:00:02;5.15;;;1.35;;
8232;SDS011;4157;48.074;9.952;2022-10-16T08:02:37;4.63;;;1.55;;
8232;SDS011;4157;48.074;9.952;2022-10-16T08:05:05;3.03;;;1.38;;
8232;SDS011;4157;48.074;9.952;2022-10-16T08:07:33;5.13;;;1.30;;
8232;SDS011;4157;48.074;9.952;2022-10-16T08:10:01;4.45;;;1.27;;
8232;SDS011;4157;48.074;9.952;2022-10-16T08:12:29;3.45;;;1.50;;
8232;SDS011;4157;48.074;9.952;2022-10-16T08:14:57;3.58;;;1.27;;
8232;SDS011;4157;48.074;9.952;2022-10-16T08:17:26;3.10;;;1.15;;
8232;SDS011;4157;48.074;9.952;2022-10-16T08:19:53;4.65;;;1.20;;
8232;SDS011;4157;48.074;9.952;2022-10-16T08:22:21;4.43;;;1.30;;
8232;SDS011;4157;48.074;9.952;2022-10-16T08:24:49;3.63;;;1.13;;
8232;SDS011;4157;48.074;9.952;2022-10-16T08:27:17;5.57;;;1.35;;
8232;SDS011;4157;48.074;9.952;2022-10-16T08:29:45;4.00;;;1.40;;
8232;SDS011;4157;48.074;9.952;2022-10-16T08:32:13;5.40;;;1.10;;
8232;SDS011;4157;48.074;9.952;2022-10-16T08:34:42;2.83;;;1.23;;
8232;SDS011;4157;48.074;9.952;2022-10-16T08:37:10;1.48;;;1.00;;
8232;SDS011;4157;48.074;9.952;2022-10-16T08:39:39;3.55;;;0.98;;
8232;SDS011;4157;48.074;9.952;2022-10-16T08:42:11;3.72;;;1.17;;
8232;SDS011;4157;48.074;9.952;2022-10-16T08:44:57;3.35;;;1.15;;
8232;SDS011;4157;48.074;9.952;2022-10-16T08:47:34;2.97;;;0.93;;
8232;SDS011;4157;48.074;9.952;2022-10-16T08:50:08;1.90;;;1.02;;
8232;SDS011;4157;48.074;9.952;2022-10-16T08:52:38;4.78;;;1.30;;
8232;SDS011;4157;48.074;9.952;2022-10-16T08:55:08;3.88;;;1.02;;
8232;SDS011;4157;48.074;9.952;2022-10-16T08:57:44;3.20;;;1.13;;
8232;SDS011;4157;48.074;9.952;2022-10-16T09:00:12;4.40;;;1.05;;
8232;SDS011;4157;48.074;9.952;2022-10-16T09:02:43;4.28;;;1.23;;
8232;SDS011;4157;48.074;9.952;2022-10-16T09:05:26;4.25;;;1.40;;
8232;SDS011;4157;48.074;9.952;2022-10-16T09:08:02;2.25;;;1.13;;
8232;SDS011;4157;48.074;9.952;2022-10-16T09:10:35;5.53;;;1.48;;
8232;SDS011;4157;48.074;9.952;2022-10-16T09:13:09;4.75;;;1.10;;
8232;SDS011;4157;48.074;9.952;2022-10-16T09:15:39;3.88;;;1.30;;
8232;SDS011;4157;48.074;9.952;2022-10-16T09:18:09;1.80;;;1.10;;
8232;SDS011;4157;48.074;9.952;2022-10-16T09:20:44;3.53;;;1.40;;
8232;SDS011;4157;48.074;9.952;2022-10-16T09:23:16;3.70;;;1.40;;
8232;SDS011;4157;48.074;9.952;2022-10-16T09:25:45;2.70;;;1.27;;
8232;SDS011;4157;48.074;9.952;2022-10-16T09:28:14;3.85;;;1.17;;
8232;SDS011;4157;48.074;9.952;2022-10-16T09:30:42;2.13;;;1.10;;
8232;SDS011;4157;48.074;9.952;2022-10-16T09:33:10;2.80;;;1.17;;
8232;SDS011;4157;48.074;9.952;2022-10-16T09:35:40;3.60;;;1.05;;
8232;SDS011;4157;48.074;9.952;2022-10-16T09:38:10;3.88;;;1.00;;
8232;SDS011;4157;48.074;9.952;2022-10-16T09:40:48;4.22;;;1.30;;
8232;SDS011;4157;48.074;9.952;2022-10-16T09:43:19;4.22;;;1.40;;
8232;SDS011;4157;48.074;9.952;2022-10-16T09:45:54;2.88;;;1.27;;
8232;SDS011;4157;48.074;9.952;2022-10-16T09:48:22;2.10;;;1.00;;
8232;SDS011;4157;48.074;9.952;2022-10-16T09:50:57;2.83;;;1.15;;
8232;SDS011;4157;48.074;9.952;2022-10-16T09:53:27;2.28;;;1.10;;
8232;SDS011;4157;48.074;9.952;2022-10-16T09:56:05;2.72;;;1.10;;
8232;SDS011;4157;48.074;9.952;2022-10-16T09:58:33;3.15;;;1.50;;
8232;SDS011;4157;48.074;9.952;2022-10-16T10:01:00;3.30;;;1.33;;
8232;SDS011;4157;48.074;9.952;2022-10-16T10:03:35;2.90;;;1.60;;
8232;SDS011;4157;48.074;9.952;2022-10-16T10:06:06;2.33;;;1.13;;
8232;SDS011;4157;48.074;9.952;2022-10-16T10:08:35;2.95;;;0.93;;
8232;SDS011;4157;48.074;9.952;2022-10-16T10:11:03;2.75;;;1.13;;
8232;SDS011;4157;48.074;9.952;2022-10-16T10:13:31;3.70;;;0.90;;
8232;SDS011;4157;48.074;9.952;2022-10-16T10:15:59;2.13;;;1.00;;
8232;SDS011;4157;48.074;9.952;2022-10-16T10:18:26;2.13;;;1.02;;
8232;SDS011;4157;48.074;9.952;2022-10-16T10:20:57;2.88;;;1.10;;
8232;SDS011;4157;48.074;9.952;2022-10-16T10:23:26;1.92;;;0.98;;
8232;SDS011;4157;48.074;9.952;2022-10-16T10:25:56;1.80;;;1.05;;
8232;SDS011;4157;48.074;9.952;2022-10-16T10:28:44;3.97;;;1.63;;
8232;SDS011;4157;48.074;9.952;2022-10-16T10:31:14;2.50;;;0.73;;
8232;SDS011;4157;48.074;9.952;2022-10-16T10:33:44;1.27;;;0.70;;
8232;SDS011;4157;48.074;9.952;2022-10-16T10:36:16;2.80;;;1.00;;
8232;SDS011;4157;48.074;9.952;2022-10-16T10:38:47;3.00;;;1.00;;
8232;SDS011;4157;48.074;9.952;2022-10-16T10:41:24;2.13;;;0.90;;
8232;SDS011;4157;48.074;9.952;2022-10-16T10:43:55;3.85;;;1.13;;
8232;SDS011;4157;48.074;9.952;2022-10-16T10:46:29;2.28;;;1.08;;
8232;SDS011;4157;48.074;9.952;2022-10-16T10:49:08;3.65;;;0.93;;
8232;SDS011;4157;48.074;9.952;2022-10-16T10:51:40;1.58;;;0.82;;
8232;SDS011;4157;48.074;9.952;2022-10-16T10:54:13;4.57;;;1.00;;
8232;SDS011;4157;48.074;9.952;2022-10-16T10:56:44;3.70;;;1.10;;
8232;SDS011;4157;48.074;9.952;2022-10-16T10:59:21;4.20;;;0.82;;
8232;SDS011;4157;48.074;9.952;2022-10-16T11:01:54;2.40;;;0.90;;
8232;SDS011;4157;48.074;9.952;2022-10-16T11:04:28;2.25;;;0.80;;
8232;SDS011;4157;48.074;9.952;2022-10-16T11:07:00;2.20;;;0.90;;
8232;SDS011;4157;48.074;9.952;2022-10-16T11:09:30;3.50;;;0.80;;
8232;SDS011;4157;48.074;9.952;2022-10-16T11:12:01;3.08;;;0.73;;
8232;SDS011;4157;48.074;9.952;2022-10-16T11:14:30;3.88;;;1.00;;
8232;SDS011;4157;48.074;9.952;2022-10-16T11:17:02;4.22;;;1.60;;
8232;SDS011;4157;48.074;9.952;2022-10-16T11:19:34;4.28;;;0.98;;
8232;SDS011;4157;48.074;9.952;2022-10-16T11:22:06;3.10;;;1.00;;
8232;SDS011;4157;48.074;9.952;2022-10-16T11:24:40;1.60;;;0.80;;
8232;SDS011;4157;48.074;9.952;2022-10-16T11:27:12;2.05;;;1.00;;
8232;SDS011;4157;48.074;9.952;2022-10-16T11:29:44;2.83;;;1.10;;
8232;SDS011;4157;48.074;9.952;2022-10-16T11:32:17;4.65;;;1.55;;
8232;SDS011;4157;48.074;9.952;2022-10-16T11:34:47;2.35;;;0.80;;
8232;SDS011;4157;48.074;9.952;2022-10-16T11:37:17;2.63;;;0.80;;
8232;SDS011;4157;48.074;9.952;2022-10-16T11:39:46;2.53;;;0.88;;
8232;SDS011;4157;48.074;9.952;2022-10-16T11:42:18;4.00;;;0.80;;
8232;SDS011;4157;48.074;9.952;2022-10-16T11:44:50;1.30;;;0.68;;
8232;SDS011;4157;48.074;9.952;2022-10-16T11:47:27;3.30;;;0.65;;
8232;SDS011;4157;48.074;9.952;2022-10-16T11:49:58;3.17;;;0.60;;
8232;SDS011;4157;48.074;9.952;2022-10-16T11:52:28;1.42;;;0.60;;
8232;SDS011;4157;48.074;9.952;2022-10-16T11:54:59;5.03;;;0.90;;
8232;SDS011;4157;48.074;9.952;2022-10-16T11:57:32;2.22;;;0.90;;
8232;SDS011;4157;48.074;9.952;2022-10-16T12:00:02;4.05;;;0.75;;
8232;SDS011;4157;48.074;9.952;2022-10-16T12:02:44;3.45;;;1.20;;
8232;SDS011;4157;48.074;9.952;2022-10-16T12:05:19;1.20;;;0.63;;
8232;SDS011;4157;48.074;9.952;2022-10-16T12:10:18;1.55;;;0.55;;
8232;SDS011;4157;48.074;9.952;2022-10-16T12:12:48;1.98;;;0.60;;
8232;SDS011;4157;48.074;9.952;2022-10-16T12:15:21;2.42;;;0.60;;
8232;SDS011;4157;48.074;9.952;2022-10-16T12:17:49;1.95;;;0.80;;
8232;SDS011;4157;48.074;9.952;2022-10-16T12:20:24;2.25;;;0.68;;
8232;SDS011;4157;48.074;9.952;2022-10-16T12:22:53;7.55;;;1.42;;
8232;SDS011;4157;48.074;9.952;2022-10-16T12:25:22;1.88;;;0.70;;
8232;SDS011;4157;48.074;9.952;2022-10-16T12:27:56;1.65;;;0.60;;
8232;SDS011;4157;48.074;9.952;2022-10-16T12:32:55;1.67;;;0.85;;
8232;SDS011;4157;48.074;9.952;2022-10-16T12:35:25;2.17;;;0.70;;
8232;SDS011;4157;48.074;9.952;2022-10-16T12:37:53;2.78;;;0.60;;
8232;SDS011;4157;48.074;9.952;2022-10-16T12:40:26;2.88;;;0.60;;
8232;SDS011;4157;48.074;9.952;2022-10-16T12:42:55;2.63;;;0.70;;
8232;SDS011;4157;48.074;9.952;2022-10-16T12:45:24;1.85;;;0.65;;
8232;SDS011;4157;48.074;9.952;2022-10-16T12:47:53;1.42;;;0.60;;
8232;SDS011;4157;48.074;9.952;2022-10-16T12:50:23;2.97;;;0.75;;
8232;SDS011;4157;48.074;9.952;2022-10-16T12:52:51;2.53;;;0.77;;
8232;SDS011;4157;48.074;9.952;2022-10-16T12:55:19;1.45;;;0.75;;
8232;SDS011;4157;48.074;9.952;2022-10-16T12:57:52;1.50;;;0.77;;
8232;SDS011;4157;48.074;9.952;2022-10-16T13:00:24;6.28;;;1.05;;
8232;SDS011;4157;48.074;9.952;2022-10-16T13:03:01;2.08;;;0.70;;
8232;SDS011;4157;48.074;9.952;2022-10-16T13:05:36;2.88;;;0.85;;
8232;SDS011;4157;48.074;9.952;2022-10-16T13:08:12;1.30;;;0.60;;
8232;SDS011;4157;48.074;9.952;2022-10-16T13:10:46;2.00;;;0.82;;
8232;SDS011;4157;48.074;9.952;2022-10-16T13:16:08;2.53;;;1.00;;
8232;SDS011;4157;48.074;9.952;2022-10-16T13:18:41;1.10;;;0.60;;
8232;SDS011;4157;48.074;9.952;2022-10-16T13:21:14;1.58;;;0.60;;
8232;SDS011;4157;48.074;9.952;2022-10-16T13:23:45;1.60;;;0.52;;
8232;SDS011;4157;48.074;9.952;2022-10-16T13:26:17;1.27;;;0.60;;
8232;SDS011;4157;48.074;9.952;2022-10-16T13:28:48;2.15;;;0.90;;
8232;SDS011;4157;48.074;9.952;2022-10-16T13:31:19;1.30;;;0.68;;
8232;SDS011;4157;48.074;9.952;2022-10-16T13:33:48;4.13;;;0.70;;
8232;SDS011;4157;48.074;9.952;2022-10-16T13:36:21;2.88;;;0.82;;
8232;SDS011;4157;48.074;9.952;2022-10-16T13:38:57;3.13;;;0.90;;
8232;SDS011;4157;48.074;9.952;2022-10-16T13:41:26;1.67;;;0.60;;
8232;SDS011;4157;48.074;9.952;2022-10-16T13:43:54;1.45;;;0.60;;
8232;SDS011;4157;48.074;9.952;2022-10-16T13:46:25;1.02;;;0.60;;
8232;SDS011;4157;48.074;9.952;2022-10-16T13:48:56;4.57;;;0.93;;
8232;SDS011;4157;48.074;9.952;2022-10-16T13:51:24;0.77;;;0.50;;
8232;SDS011;4157;48.074;9.952;2022-10-16T13:53:52;1.85;;;0.77;;
8232;SDS011;4157;48.074;9.952;2022-10-16T13:56:20;3.17;;;0.60;;
8232;SDS011;4157;48.074;9.952;2022-10-16T13:58:57;2.55;;;0.82;;
8232;SDS011;4157;48.074;9.952;2022-10-16T14:01:27;1.73;;;0.70;;
8232;SDS011;4157;48.074;9.952;2022-10-16T14:04:00;2.60;;;0.50;;
8232;SDS011;4157;48.074;9.952;2022-10-16T14:08:59;3.22;;;0.85;;
8232;SDS011;4157;48.074;9.952;2022-10-16T14:11:27;2.15;;;0.90;;
8232;SDS011;4157;48.074;9.952;2022-10-16T14:13:55;2.58;;;0.75;;
8232;SDS011;4157;48.074;9.952;2022-10-16T14:16:23;3.05;;;0.63;;
8232;SDS011;4157;48.074;9.952;2022-10-16T14:18:57;1.17;;;0.70;;
8232;SDS011;4157;48.074;9.952;2022-10-16T14:21:25;1.98;;;0.70;;
8232;SDS011;4157;48.074;9.952;2022-10-16T14:23:53;1.77;;;0.70;;
8232;SDS011;4157;48.074;9.952;2022-10-16T14:26:22;1.13;;;0.70;;
8232;SDS011;4157;48.074;9.952;2022-10-16T14:29:00;1.23;;;0.60;;
8232;SDS011;4157;48.074;9.952;2022-10-16T14:31:29;2.08;;;0.65;;
8232;SDS011;4157;48.074;9.952;2022-10-16T14:33:59;1.77;;;0.70;;
8232;SDS011;4157;48.074;9.952;2022-10-16T14:36:27;1.63;;;0.77;;
8232;SDS011;4157;48.074;9.952;2022-10-16T14:38:59;1.92;;;0.60;;
8232;SDS011;4157;48.074;9.952;2022-10-16T14:41:28;2.35;;;0.88;;
8232;SDS011;4157;48.074;9.952;2022-10-16T14:43:57;2.65;;;0.80;;
8232;SDS011;4157;48.074;9.952;2022-10-16T14:46:29;2.15;;;0.70;;
8232;SDS011;4157;48.074;9.952;2022-10-16T14:48:59;1.38;;;0.60;;
8232;SDS011;4157;48.074;9.952;2022-10-16T14:51:28;1.23;;;0.65;;
8232;SDS011;4157;48.074;9.952;2022-10-16T14:53:56;2.67;;;0.70;;
8232;SDS011;4157;48.074;9.952;2022-10-16T14:56:24;2.00;;;0.60;;
8232;SDS011;4157;48.074;9.952;2022-10-16T14:58:52;2.67;;;0.63;;
8232;SDS011;4157;48.074;9.952;2022-10-16T15:01:20;3.22;;;0.70;;
8232;SDS011;4157;48.074;9.952;2022-10-16T15:03:48;2.05;;;0.73;;
8232;SDS011;4157;48.074;9.952;2022-10-16T15:06:19;2.30;;;0.60;;
8232;SDS011;4157;48.074;9.952;2022-10-16T15:08:46;1.20;;;0.60;;
8232;SDS011;4157;48.074;9.952;2022-10-16T15:11:15;1.70;;;0.70;;
8232;SDS011;4157;48.074;9.952;2022-10-16T15:13:43;1.20;;;0.65;;
8232;SDS011;4157;48.074;9.952;2022-10-16T15:16:12;4.70;;;0.82;;
8232;SDS011;4157;48.074;9.952;2022-10-16T15:18:39;2.03;;;0.68;;
8232;SDS011;4157;48.074;9.952;2022-10-16T15:21:07;3.15;;;0.80;;
8232;SDS011;4157;48.074;9.952;2022-10-16T15:23:36;3.72;;;0.70;;
8232;SDS011;4157;48.074;9.952;2022-10-16T15:26:05;3.28;;;0.85;;
8232;SDS011;4157;48.074;9.952;2022-10-16T15:28:32;1.55;;;0.95;;
8232;SDS011;4157;48.074;9.952;2022-10-16T15:31:01;2.72;;;0.80;;
8232;SDS011;4157;48.074;9.952;2022-10-16T15:33:28;2.22;;;0.77;;
8232;SDS011;4157;48.074;9.952;2022-10-16T15:35:59;3.67;;;0.88;;
8232;SDS011;4157;48.074;9.952;2022-10-16T15:38:27;1.63;;;0.60;;
8232;SDS011;4157;48.074;9.952;2022-10-16T15:40:56;2.35;;;0.90;;